Natrona, Wyoming
Current Conditions -  °F | °C
As of 9:53 AM on Thursday 30 Oct 2014 (Local Time) from KCPR Reporting Station
Clear Clear  
Wind Chill: 40°   Ceiling: Unl
Heat Index: 40°   Visibility: 10mi
Dew Point: 22°   Wind: 0mph
Humidity: 49%   Direction: NA
Pressure: 30.36"   Gusts: NA
Location:  43.03°N, 106.81°W
Report Text: KCPR 301553Z 00000KT 10SM CLR 04/M06 A3036 RMK AO2 SLP284 T00441056
Loading
Personal Weather Stations






























Interactive Weather Map
Tropical Storm Tracking
New forecast layout! Learn more

10-Day Weather Forecast

Advertisements
Track Severe Weather on mobile